Las Vegas, NV (89109)

5:52 PM PDT on August 04, 2015 (GMT -0700)
Jones and Flamingo | | Change Station
CLOSE
Current Station
Personal Weather Station
Location: Las Vegas, NV
Elevation: 2320 ft
Nearby Weather Stations

Elev 2320 ft 36.12 °N, 115.23 °W | Updated 12 seconds ago

Mostly Cloudy
Mostly Cloudy
99.0 °F
Feels Like 94 °F
N
0.0
Wind Variable Wind from WNW
Gusts 0.0 mph

Today
High -- | Low -- °F
--% Chance of Precip.
Yesterday
High -- | Low -- °F
Precip. -- in
5:49 AM 7:42 PM
Waning Gibbous, 73% visible
Pressure 29.70 in
Visibility 10.0 miles
Clouds Few 15000 ft
Mostly Cloudy 25000 ft
Heat Index 94 °F
Dew Point 33 °F
Humidity 10%
Rainfall 0.00 in
Snow Depth Not available.
UV 1.0 out of 12
Pollen 5.10 out of 12
Air Quality Not available.
Flu Activity Not available.
METAR KLAS 042356Z 21011G21KT 10SM FEW150 BKN250 40/M03 A2980 RMK SLP058 ACSL NW T04001028 10411 20372 56013

More Conditions Fewer Conditions

Pressure 29.70 in
Visibility 10.0 miles
Clouds Few 15000 ft
Mostly Cloudy 25000 ft
Heat Index 94 °F
Dew Point 33 °F
Humidity 10%
Rainfall 0.00 in
Snow Depth Not available.
UV 1.0 out of 12
Pollen 5.10 out of 12
Air Quality Not available.
Flu Activity Not available.
METAR KLAS 042356Z 21011G21KT 10SM FEW150 BKN250 40/M03 A2980 RMK SLP058 ACSL NW T04001028 10411 20372 56013

More Conditions Fewer Conditions

10-Day Weather Forecast

×

Almanac

Astronomy

Aug. 04, 2015 Rise Set
Actual Time
Civil Twilight
Nautical Twilight
Astronomical Twilight
Moon
Length of Visible Light
Length of Day
Tomorrow will be .
, % of the Moon is Illuminated

Today's Extremes

State Highs State Lows

Community

WunderPhotos

Upload Photos

1,844,033 photos uploaded!

WunderBlogs® & News

Nearby

Air Quality

  Air Quality AQ Index Pollutant
Not available.

Snow Depth

Station Depth Elevation

Earthquake Activity

City Distance Mag. Time & Date
Minimum magnitude displayed is 2.5.

Coastal Water Temperatures

Place Temperature

Stations

Nearby Weather Stations

Station Location Temp. Windchill Dew Point Humidity Wind Precip. Elev Updated Type